sensor_id;sensor_type;location;lat;lon;timestamp;P1;P2;P0
70249;PMS5003;57644;48.416;-123.374;2022-07-15T00:05:34;6;6;
70249;PMS5003;57644;48.416;-123.374;2022-07-15T00:08:04;6;5;
70249;PMS5003;57644;48.416;-123.374;2022-07-15T00:10:35;13;10;
70249;PMS5003;57644;48.416;-123.374;2022-07-15T00:13:05;7;6;
70249;PMS5003;57644;48.416;-123.374;2022-07-15T00:15:36;10;9;
70249;PMS5003;57644;48.416;-123.374;2022-07-15T00:18:07;8;7;
70249;PMS5003;57644;48.416;-123.374;2022-07-15T00:20:37;10;10;
70249;PMS5003;57644;48.416;-123.374;2022-07-15T00:23:09;8;8;
70249;PMS5003;57644;48.416;-123.374;2022-07-15T00:25:39;9;8;
70249;PMS5003;57644;48.416;-123.374;2022-07-15T00:28:09;12;11;
70249;PMS5003;57644;48.416;-123.374;2022-07-15T00:30:42;7;7;
70249;PMS5003;57644;48.416;-123.374;2022-07-15T00:33:09;12;11;
70249;PMS5003;57644;48.416;-123.374;2022-07-15T00:35:39;8;8;
70249;PMS5003;57644;48.416;-123.374;2022-07-15T00:38:10;8;6;
70249;PMS5003;57644;48.416;-123.374;2022-07-15T00:40:40;8;7;
70249;PMS5003;57644;48.416;-123.374;2022-07-15T00:43:10;6;5;
70249;PMS5003;57644;48.416;-123.374;2022-07-15T00:45:41;5;5;
70249;PMS5003;57644;48.416;-123.374;2022-07-15T00:48:12;6;6;
70249;PMS5003;57644;48.416;-123.374;2022-07-15T00:50:41;5;5;
70249;PMS5003;57644;48.416;-123.374;2022-07-15T00:53:13;12;11;
70249;PMS5003;57644;48.416;-123.374;2022-07-15T00:55:43;19;18;
70249;PMS5003;57644;48.416;-123.374;2022-07-15T00:58:14;13;12;
70249;PMS5003;57644;48.416;-123.374;2022-07-15T01:00:43;8;7;
70249;PMS5003;57644;48.416;-123.374;2022-07-15T01:03:13;5;4;
70249;PMS5003;57644;48.416;-123.374;2022-07-15T01:05:44;7;6;
70249;PMS5003;57644;48.416;-123.374;2022-07-15T01:08:13;5;5;
70249;PMS5003;57644;48.416;-123.374;2022-07-15T01:10:43;4;4;
70249;PMS5003;57644;48.416;-123.374;2022-07-15T01:13:15;10;9;
70249;PMS5003;57644;48.416;-123.374;2022-07-15T01:15:44;15;14;
70249;PMS5003;57644;48.416;-123.374;2022-07-15T01:18:15;18;15;
70249;PMS5003;57644;48.416;-123.374;2022-07-15T01:20:45;14;12;
70249;PMS5003;57644;48.416;-123.374;2022-07-15T01:23:16;10;10;
70249;PMS5003;57644;48.416;-123.374;2022-07-15T01:25:46;9;8;
70249;PMS5003;57644;48.416;-123.374;2022-07-15T01:28:17;22;20;
70249;PMS5003;57644;48.416;-123.374;2022-07-15T01:30:46;14;11;
70249;PMS5003;57644;48.416;-123.374;2022-07-15T01:33:17;8;8;
70249;PMS5003;57644;48.416;-123.374;2022-07-15T01:35:47;12;12;
70249;PMS5003;57644;48.416;-123.374;2022-07-15T01:38:17;17;16;
70249;PMS5003;57644;48.416;-123.374;2022-07-15T01:40:53;11;11;
70249;PMS5003;57644;48.416;-123.374;2022-07-15T01:43:18;9;9;
70249;PMS5003;57644;48.416;-123.374;2022-07-15T01:45:48;7;6;
70249;PMS5003;57644;48.416;-123.374;2022-07-15T01:48:19;7;5;
70249;PMS5003;57644;48.416;-123.374;2022-07-15T01:50:49;5;5;
70249;PMS5003;57644;48.416;-123.374;2022-07-15T01:53:28;5;5;
70249;PMS5003;57644;48.416;-123.374;2022-07-15T01:55:49;15;14;
70249;PMS5003;57644;48.416;-123.374;2022-07-15T01:58:20;9;9;
70249;PMS5003;57644;48.416;-123.374;2022-07-15T02:00:51;11;10;
70249;PMS5003;57644;48.416;-123.374;2022-07-15T02:03:21;10;9;
70249;PMS5003;57644;48.416;-123.374;2022-07-15T02:05:51;10;10;
70249;PMS5003;57644;48.416;-123.374;2022-07-15T02:08:22;19;18;
70249;PMS5003;57644;48.416;-123.374;2022-07-15T02:10:53;10;10;
70249;PMS5003;57644;48.416;-123.374;2022-07-15T02:13:23;8;7;
70249;PMS5003;57644;48.416;-123.374;2022-07-15T02:15:53;6;6;
70249;PMS5003;57644;48.416;-123.374;2022-07-15T02:18:24;8;6;
70249;PMS5003;57644;48.416;-123.374;2022-07-15T02:20:53;7;6;
70249;PMS5003;57644;48.416;-123.374;2022-07-15T02:23:24;7;7;
70249;PMS5003;57644;48.416;-123.374;2022-07-15T02:25:54;9;8;
70249;PMS5003;57644;48.416;-123.374;2022-07-15T02:28:24;5;5;
70249;PMS5003;57644;48.416;-123.374;2022-07-15T02:30:55;4;4;
70249;PMS5003;57644;48.416;-123.374;2022-07-15T02:33:25;5;5;
70249;PMS5003;57644;48.416;-123.374;2022-07-15T02:35:55;5;4;
70249;PMS5003;57644;48.416;-123.374;2022-07-15T02:38:26;5;5;
70249;PMS5003;57644;48.416;-123.374;2022-07-15T02:40:56;5;5;
70249;PMS5003;57644;48.416;-123.374;2022-07-15T02:43:26;7;5;
70249;PMS5003;57644;48.416;-123.374;2022-07-15T02:45:58;4;4;
70249;PMS5003;57644;48.416;-123.374;2022-07-15T02:48:27;5;5;
70249;PMS5003;57644;48.416;-123.374;2022-07-15T02:50:58;5;5;
70249;PMS5003;57644;48.416;-123.374;2022-07-15T02:53:28;5;5;
70249;PMS5003;57644;48.416;-123.374;2022-07-15T02:55:58;6;6;
70249;PMS5003;57644;48.416;-123.374;2022-07-15T02:58:29;7;5;
70249;PMS5003;57644;48.416;-123.374;2022-07-15T03:00:59;6;6;
70249;PMS5003;57644;48.416;-123.374;2022-07-15T03:03:29;7;6;
70249;PMS5003;57644;48.416;-123.374;2022-07-15T03:05:59;5;5;
70249;PMS5003;57644;48.416;-123.374;2022-07-15T03:08:29;5;5;
70249;PMS5003;57644;48.416;-123.374;2022-07-15T03:11:00;7;6;
70249;PMS5003;57644;48.416;-123.374;2022-07-15T03:13:30;11;11;
70249;PMS5003;57644;48.416;-123.374;2022-07-15T03:16:01;7;7;
70249;PMS5003;57644;48.416;-123.374;2022-07-15T03:18:31;7;6;
70249;PMS5003;57644;48.416;-123.374;2022-07-15T03:21:02;8;7;
70249;PMS5003;57644;48.416;-123.374;2022-07-15T03:23:32;7;7;
70249;PMS5003;57644;48.416;-123.374;2022-07-15T03:26:02;6;5;
70249;PMS5003;57644;48.416;-123.374;2022-07-15T03:28:33;27;26;
70249;PMS5003;57644;48.416;-123.374;2022-07-15T03:31:02;8;8;
70249;PMS5003;57644;48.416;-123.374;2022-07-15T03:33:33;14;13;
70249;PMS5003;57644;48.416;-123.374;2022-07-15T03:36:05;13;12;
70249;PMS5003;57644;48.416;-123.374;2022-07-15T03:38:34;17;16;
70249;PMS5003;57644;48.416;-123.374;2022-07-15T03:41:04;16;15;
70249;PMS5003;57644;48.416;-123.374;2022-07-15T03:43:35;10;8;
70249;PMS5003;57644;48.416;-123.374;2022-07-15T03:46:05;8;7;
70249;PMS5003;57644;48.416;-123.374;2022-07-15T03:48:36;8;8;
70249;PMS5003;57644;48.416;-123.374;2022-07-15T03:51:06;8;7;
70249;PMS5003;57644;48.416;-123.374;2022-07-15T03:53:37;8;6;
70249;PMS5003;57644;48.416;-123.374;2022-07-15T03:56:07;10;8;
70249;PMS5003;57644;48.416;-123.374;2022-07-15T03:58:37;9;9;
70249;PMS5003;57644;48.416;-123.374;2022-07-15T04:01:07;13;10;
70249;PMS5003;57644;48.416;-123.374;2022-07-15T04:03:38;9;6;
70249;PMS5003;57644;48.416;-123.374;2022-07-15T04:06:08;10;9;
70249;PMS5003;57644;48.416;-123.374;2022-07-15T04:08:38;9;9;
70249;PMS5003;57644;48.416;-123.374;2022-07-15T04:11:09;6;6;
70249;PMS5003;57644;48.416;-123.374;2022-07-15T04:13:43;7;7;
70249;PMS5003;57644;48.416;-123.374;2022-07-15T04:16:09;8;7;
70249;PMS5003;57644;48.416;-123.374;2022-07-15T04:18:40;5;5;
70249;PMS5003;57644;48.416;-123.374;2022-07-15T04:21:10;6;4;
70249;PMS5003;57644;48.416;-123.374;2022-07-15T04:23:40;5;5;
70249;PMS5003;57644;48.416;-123.374;2022-07-15T04:26:16;17;16;
70249;PMS5003;57644;48.416;-123.374;2022-07-15T04:28:41;8;7;
70249;PMS5003;57644;48.416;-123.374;2022-07-15T04:31:15;15;14;
70249;PMS5003;57644;48.416;-123.374;2022-07-15T04:33:41;11;10;
70249;PMS5003;57644;48.416;-123.374;2022-07-15T04:36:13;6;5;
70249;PMS5003;57644;48.416;-123.374;2022-07-15T04:38:42;9;8;
70249;PMS5003;57644;48.416;-123.374;2022-07-15T04:41:12;9;8;
70249;PMS5003;57644;48.416;-123.374;2022-07-15T04:43:42;7;7;
70249;PMS5003;57644;48.416;-123.374;2022-07-15T04:46:12;5;5;
70249;PMS5003;57644;48.416;-123.374;2022-07-15T04:48:43;5;4;
70249;PMS5003;57644;48.416;-123.374;2022-07-15T04:51:14;4;4;
70249;PMS5003;57644;48.416;-123.374;2022-07-15T04:53:44;6;6;
70249;PMS5003;57644;48.416;-123.374;2022-07-15T04:56:14;5;4;
70249;PMS5003;57644;48.416;-123.374;2022-07-15T04:58:45;3;3;
70249;PMS5003;57644;48.416;-123.374;2022-07-15T05:01:14;5;4;
70249;PMS5003;57644;48.416;-123.374;2022-07-15T05:03:51;3;3;
70249;PMS5003;57644;48.416;-123.374;2022-07-15T05:06:16;3;2;
70249;PMS5003;57644;48.416;-123.374;2022-07-15T05:08:46;6;6;
70249;PMS5003;57644;48.416;-123.374;2022-07-15T05:11:16;5;5;
70249;PMS5003;57644;48.416;-123.374;2022-07-15T05:13:46;7;6;
70249;PMS5003;57644;48.416;-123.374;2022-07-15T05:16:17;5;4;
70249;PMS5003;57644;48.416;-123.374;2022-07-15T05:18:47;8;7;
70249;PMS5003;57644;48.416;-123.374;2022-07-15T05:21:19;8;5;
70249;PMS5003;57644;48.416;-123.374;2022-07-15T05:23:48;5;5;
70249;PMS5003;57644;48.416;-123.374;2022-07-15T05:26:18;4;4;
70249;PMS5003;57644;48.416;-123.374;2022-07-15T05:28:49;5;5;
70249;PMS5003;57644;48.416;-123.374;2022-07-15T05:31:19;11;3;
70249;PMS5003;57644;48.416;-123.374;2022-07-15T05:33:49;6;5;
70249;PMS5003;57644;48.416;-123.374;2022-07-15T05:36:20;3;3;
70249;PMS5003;57644;48.416;-123.374;2022-07-15T05:38:50;3;3;
70249;PMS5003;57644;48.416;-123.374;2022-07-15T05:41:21;2;2;
70249;PMS5003;57644;48.416;-123.374;2022-07-15T05:43:51;4;3;
70249;PMS5003;57644;48.416;-123.374;2022-07-15T05:46:21;4;3;
70249;PMS5003;57644;48.416;-123.374;2022-07-15T05:48:51;5;4;
70249;PMS5003;57644;48.416;-123.374;2022-07-15T05:51:22;3;3;
70249;PMS5003;57644;48.416;-123.374;2022-07-15T05:53:52;1;1;
70249;PMS5003;57644;48.416;-123.374;2022-07-15T05:56:25;1;1;
70249;PMS5003;57644;48.416;-123.374;2022-07-15T05:58:53;3;3;
70249;PMS5003;57644;48.416;-123.374;2022-07-15T06:01:23;4;3;
70249;PMS5003;57644;48.416;-123.374;2022-07-15T06:03:53;4;3;
70249;PMS5003;57644;48.416;-123.374;2022-07-15T06:06:24;3;3;
70249;PMS5003;57644;48.416;-123.374;2022-07-15T06:08:55;3;2;
70249;PMS5003;57644;48.416;-123.374;2022-07-15T06:11:25;4;4;
70249;PMS5003;57644;48.416;-123.374;2022-07-15T06:13:55;2;2;
70249;PMS5003;57644;48.416;-123.374;2022-07-15T06:16:25;2;2;
70249;PMS5003;57644;48.416;-123.374;2022-07-15T06:18:55;3;2;
70249;PMS5003;57644;48.416;-123.374;2022-07-15T06:21:26;3;2;
70249;PMS5003;57644;48.416;-123.374;2022-07-15T06:23:56;2;2;
70249;PMS5003;57644;48.416;-123.374;2022-07-15T06:26:27;3;3;
70249;PMS5003;57644;48.416;-123.374;2022-07-15T06:28:57;3;3;
70249;PMS5003;57644;48.416;-123.374;2022-07-15T06:31:27;6;3;
70249;PMS5003;57644;48.416;-123.374;2022-07-15T06:33:58;3;3;
70249;PMS5003;57644;48.416;-123.374;2022-07-15T06:36:28;5;4;
70249;PMS5003;57644;48.416;-123.374;2022-07-15T06:38:58;3;3;
70249;PMS5003;57644;48.416;-123.374;2022-07-15T06:41:30;3;3;
70249;PMS5003;57644;48.416;-123.374;2022-07-15T06:43:59;4;3;
70249;PMS5003;57644;48.416;-123.374;2022-07-15T06:46:29;2;2;
70249;PMS5003;57644;48.416;-123.374;2022-07-15T06:49:00;3;3;
70249;PMS5003;57644;48.416;-123.374;2022-07-15T06:51:30;3;3;
70249;PMS5003;57644;48.416;-123.374;2022-07-15T06:54:01;2;2;
70249;PMS5003;57644;48.416;-123.374;2022-07-15T06:56:31;2;2;
70249;PMS5003;57644;48.416;-123.374;2022-07-15T06:59:01;3;3;
70249;PMS5003;57644;48.416;-123.374;2022-07-15T07:01:31;2;2;
70249;PMS5003;57644;48.416;-123.374;2022-07-15T07:04:02;3;3;
70249;PMS5003;57644;48.416;-123.374;2022-07-15T07:06:32;4;3;
70249;PMS5003;57644;48.416;-123.374;2022-07-15T07:09:03;3;3;
70249;PMS5003;57644;48.416;-123.374;2022-07-15T07:11:34;3;3;
70249;PMS5003;57644;48.416;-123.374;2022-07-15T07:14:04;4;4;
70249;PMS5003;57644;48.416;-123.374;2022-07-15T07:16:33;3;3;
70249;PMS5003;57644;48.416;-123.374;2022-07-15T07:19:04;1;1;
70249;PMS5003;57644;48.416;-123.374;2022-07-15T07:21:34;2;2;
70249;PMS5003;57644;48.416;-123.374;2022-07-15T07:24:05;4;3;
70249;PMS5003;57644;48.416;-123.374;2022-07-15T07:26:35;2;2;
70249;PMS5003;57644;48.416;-123.374;2022-07-15T07:29:06;4;3;
70249;PMS5003;57644;48.416;-123.374;2022-07-15T07:31:36;3;3;
70249;PMS5003;57644;48.416;-123.374;2022-07-15T07:34:06;3;3;
70249;PMS5003;57644;48.416;-123.374;2022-07-15T07:36:37;3;2;
70249;PMS5003;57644;48.416;-123.374;2022-07-15T07:39:07;1;1;
70249;PMS5003;57644;48.416;-123.374;2022-07-15T07:41:37;4;2;
70249;PMS5003;57644;48.416;-123.374;2022-07-15T07:44:08;3;3;
70249;PMS5003;57644;48.416;-123.374;2022-07-15T07:46:38;3;3;
70249;PMS5003;57644;48.416;-123.374;2022-07-15T07:49:08;2;2;
70249;PMS5003;57644;48.416;-123.374;2022-07-15T07:51:39;3;2;
70249;PMS5003;57644;48.416;-123.374;2022-07-15T07:54:09;3;3;
70249;PMS5003;57644;48.416;-123.374;2022-07-15T07:56:39;4;2;
70249;PMS5003;57644;48.416;-123.374;2022-07-15T07:59:10;1;1;
70249;PMS5003;57644;48.416;-123.374;2022-07-15T08:01:40;2;2;
70249;PMS5003;57644;48.416;-123.374;2022-07-15T08:04:11;1;1;
70249;PMS5003;57644;48.416;-123.374;2022-07-15T08:06:42;2;2;
70249;PMS5003;57644;48.416;-123.374;2022-07-15T08:09:11;3;2;
70249;PMS5003;57644;48.416;-123.374;2022-07-15T08:11:41;2;2;
70249;PMS5003;57644;48.416;-123.374;2022-07-15T08:14:12;2;2;
70249;PMS5003;57644;48.416;-123.374;2022-07-15T08:19:13;3;3;
70249;PMS5003;57644;48.416;-123.374;2022-07-15T08:21:43;2;2;
70249;PMS5003;57644;48.416;-123.374;2022-07-15T08:24:13;3;3;
70249;PMS5003;57644;48.416;-123.374;2022-07-15T08:26:44;3;3;
70249;PMS5003;57644;48.416;-123.374;2022-07-15T08:29:14;2;2;
70249;PMS5003;57644;48.416;-123.374;2022-07-15T08:31:44;3;2;
70249;PMS5003;57644;48.416;-123.374;2022-07-15T08:34:15;2;2;
70249;PMS5003;57644;48.416;-123.374;2022-07-15T08:36:45;3;3;
70249;PMS5003;57644;48.416;-123.374;2022-07-15T08:39:16;2;2;
70249;PMS5003;57644;48.416;-123.374;2022-07-15T08:41:46;2;2;
70249;PMS5003;57644;48.416;-123.374;2022-07-15T08:44:16;3;3;
70249;PMS5003;57644;48.416;-123.374;2022-07-15T08:49:17;3;3;
70249;PMS5003;57644;48.416;-123.374;2022-07-15T08:51:47;2;2;
70249;PMS5003;57644;48.416;-123.374;2022-07-15T08:54:18;3;3;
70249;PMS5003;57644;48.416;-123.374;2022-07-15T08:56:48;2;2;
70249;PMS5003;57644;48.416;-123.374;2022-07-15T08:59:18;2;2;
70249;PMS5003;57644;48.416;-123.374;2022-07-15T09:01:48;2;2;
70249;PMS5003;57644;48.416;-123.374;2022-07-15T09:04:20;2;2;
70249;PMS5003;57644;48.416;-123.374;2022-07-15T09:06:49;4;3;
70249;PMS5003;57644;48.416;-123.374;2022-07-15T09:11:54;3;3;
70249;PMS5003;57644;48.416;-123.374;2022-07-15T09:14:21;2;2;
70249;PMS5003;57644;48.416;-123.374;2022-07-15T09:16:51;2;2;
70249;PMS5003;57644;48.416;-123.374;2022-07-15T09:19:21;2;2;
70249;PMS5003;57644;48.416;-123.374;2022-07-15T09:24:22;3;3;
70249;PMS5003;57644;48.416;-123.374;2022-07-15T09:26:52;2;2;
70249;PMS5003;57644;48.416;-123.374;2022-07-15T09:29:25;2;2;
70249;PMS5003;57644;48.416;-123.374;2022-07-15T09:31:55;3;2;
70249;PMS5003;57644;48.416;-123.374;2022-07-15T09:34:24;2;2;
70249;PMS5003;57644;48.416;-123.374;2022-07-15T09:36:54;2;2;
70249;PMS5003;57644;48.416;-123.374;2022-07-15T09:39:24;3;2;
70249;PMS5003;57644;48.416;-123.374;2022-07-15T09:41:54;2;2;
70249;PMS5003;57644;48.416;-123.374;2022-07-15T09:44:25;2;2;
70249;PMS5003;57644;48.416;-123.374;2022-07-15T09:46:56;2;1;
70249;PMS5003;57644;48.416;-123.374;2022-07-15T09:51:56;3;3;
70249;PMS5003;57644;48.416;-123.374;2022-07-15T09:54:28;2;2;
70249;PMS5003;57644;48.416;-123.374;2022-07-15T09:56:58;4;3;
70249;PMS5003;57644;48.416;-123.374;2022-07-15T09:59:27;2;2;
70249;PMS5003;57644;48.416;-123.374;2022-07-15T10:01:58;3;3;
70249;PMS5003;57644;48.416;-123.374;2022-07-15T10:04:29;3;2;
70249;PMS5003;57644;48.416;-123.374;2022-07-15T10:06:59;3;3;
70249;PMS5003;57644;48.416;-123.374;2022-07-15T10:09:34;2;2;
70249;PMS5003;57644;48.416;-123.374;2022-07-15T10:12:00;2;2;
70249;PMS5003;57644;48.416;-123.374;2022-07-15T10:19:37;3;2;
70249;PMS5003;57644;48.416;-123.374;2022-07-15T10:22:04;4;4;
70249;PMS5003;57644;48.416;-123.374;2022-07-15T10:24:35;3;3;
70249;PMS5003;57644;48.416;-123.374;2022-07-15T10:27:05;4;3;
70249;PMS5003;57644;48.416;-123.374;2022-07-15T10:29:32;4;3;
70249;PMS5003;57644;48.416;-123.374;2022-07-15T10:32:02;2;2;
70249;PMS5003;57644;48.416;-123.374;2022-07-15T10:34:33;3;2;
70249;PMS5003;57644;48.416;-123.374;2022-07-15T10:37:04;4;3;
70249;PMS5003;57644;48.416;-123.374;2022-07-15T10:42:04;2;2;
70249;PMS5003;57644;48.416;-123.374;2022-07-15T10:44:36;3;2;
70249;PMS5003;57644;48.416;-123.374;2022-07-15T10:49:35;4;3;
70249;PMS5003;57644;48.416;-123.374;2022-07-15T10:52:11;3;3;
70249;PMS5003;57644;48.416;-123.374;2022-07-15T10:57:06;5;5;
70249;PMS5003;57644;48.416;-123.374;2022-07-15T10:59:38;2;2;
70249;PMS5003;57644;48.416;-123.374;2022-07-15T11:04:37;2;2;
70249;PMS5003;57644;48.416;-123.374;2022-07-15T11:12:08;3;3;
70249;PMS5003;57644;48.416;-123.374;2022-07-15T11:17:09;3;3;
70249;PMS5003;57644;48.416;-123.374;2022-07-15T11:19:39;1;1;
70249;PMS5003;57644;48.416;-123.374;2022-07-15T11:22:10;4;3;
70249;PMS5003;57644;48.416;-123.374;2022-07-15T11:24:40;0;0;
70249;PMS5003;57644;48.416;-123.374;2022-07-15T11:27:11;3;2;
70249;PMS5003;57644;48.416;-123.374;2022-07-15T11:29:45;2;2;
70249;PMS5003;57644;48.416;-123.374;2022-07-15T11:32:11;2;2;
70249;PMS5003;57644;48.416;-123.374;2022-07-15T11:34:42;4;3;
70249;PMS5003;57644;48.416;-123.374;2022-07-15T11:37:12;2;2;
70249;PMS5003;57644;48.416;-123.374;2022-07-15T11:39:42;4;2;
70249;PMS5003;57644;48.416;-123.374;2022-07-15T11:44:44;3;2;
70249;PMS5003;57644;48.416;-123.374;2022-07-15T11:47:13;2;2;
70249;PMS5003;57644;48.416;-123.374;2022-07-15T11:49:44;1;1;
70249;PMS5003;57644;48.416;-123.374;2022-07-15T11:54:44;2;2;
70249;PMS5003;57644;48.416;-123.374;2022-07-15T11:57:15;2;2;
70249;PMS5003;57644;48.416;-123.374;2022-07-15T12:02:15;2;2;
70249;PMS5003;57644;48.416;-123.374;2022-07-15T12:04:46;2;2;
70249;PMS5003;57644;48.416;-123.374;2022-07-15T12:07:16;3;3;
70249;PMS5003;57644;48.416;-123.374;2022-07-15T12:09:48;2;2;
70249;PMS5003;57644;48.416;-123.374;2022-07-15T12:12:17;3;3;
70249;PMS5003;57644;48.416;-123.374;2022-07-15T12:14:47;4;4;
70249;PMS5003;57644;48.416;-123.374;2022-07-15T12:17:18;3;3;
70249;PMS5003;57644;48.416;-123.374;2022-07-15T12:19:49;3;3;
70249;PMS5003;57644;48.416;-123.374;2022-07-15T12:22:19;2;2;
70249;PMS5003;57644;48.416;-123.374;2022-07-15T12:24:49;2;2;
70249;PMS5003;57644;48.416;-123.374;2022-07-15T12:27:30;4;3;
70249;PMS5003;57644;48.416;-123.374;2022-07-15T12:29:50;3;3;
70249;PMS5003;57644;48.416;-123.374;2022-07-15T12:32:20;4;3;
70249;PMS5003;57644;48.416;-123.374;2022-07-15T12:34:52;3;3;
70249;PMS5003;57644;48.416;-123.374;2022-07-15T12:37:22;2;2;
70249;PMS5003;57644;48.416;-123.374;2022-07-15T12:39:56;1;1;
70249;PMS5003;57644;48.416;-123.374;2022-07-15T12:42:22;4;3;
70249;PMS5003;57644;48.416;-123.374;2022-07-15T12:47:22;3;3;
70249;PMS5003;57644;48.416;-123.374;2022-07-15T12:49:53;3;2;
70249;PMS5003;57644;48.416;-123.374;2022-07-15T12:52:25;3;3;
70249;PMS5003;57644;48.416;-123.374;2022-07-15T12:55:10;3;3;
70249;PMS5003;57644;48.416;-123.374;2022-07-15T12:57:29;2;2;
70249;PMS5003;57644;48.416;-123.374;2022-07-15T12:59:55;1;1;
70249;PMS5003;57644;48.416;-123.374;2022-07-15T13:02:25;3;3;
70249;PMS5003;57644;48.416;-123.374;2022-07-15T13:04:55;2;2;
70249;PMS5003;57644;48.416;-123.374;2022-07-15T13:07:26;2;2;
70249;PMS5003;57644;48.416;-123.374;2022-07-15T13:09:56;3;3;
70249;PMS5003;57644;48.416;-123.374;2022-07-15T13:12:26;2;2;
70249;PMS5003;57644;48.416;-123.374;2022-07-15T13:14:56;5;5;
70249;PMS5003;57644;48.416;-123.374;2022-07-15T13:17:27;3;2;
70249;PMS5003;57644;48.416;-123.374;2022-07-15T13:19:57;3;3;
70249;PMS5003;57644;48.416;-123.374;2022-07-15T13:22:28;3;2;
70249;PMS5003;57644;48.416;-123.374;2022-07-15T13:24:59;1;1;
70249;PMS5003;57644;48.416;-123.374;2022-07-15T13:27:33;2;2;
70249;PMS5003;57644;48.416;-123.374;2022-07-15T13:29:59;3;3;
70249;PMS5003;57644;48.416;-123.374;2022-07-15T13:32:30;3;3;
70249;PMS5003;57644;48.416;-123.374;2022-07-15T13:35:01;2;2;
70249;PMS5003;57644;48.416;-123.374;2022-07-15T13:37:30;5;3;
70249;PMS5003;57644;48.416;-123.374;2022-07-15T13:40:01;1;1;
70249;PMS5003;57644;48.416;-123.374;2022-07-15T13:42:31;4;3;
70249;PMS5003;57644;48.416;-123.374;2022-07-15T13:45:01;2;2;
70249;PMS5003;57644;48.416;-123.374;2022-07-15T13:47:32;4;3;
70249;PMS5003;57644;48.416;-123.374;2022-07-15T13:50:02;4;3;
70249;PMS5003;57644;48.416;-123.374;2022-07-15T13:52:32;2;2;
70249;PMS5003;57644;48.416;-123.374;2022-07-15T13:55:03;4;4;
70249;PMS5003;57644;48.416;-123.374;2022-07-15T13:57:33;3;3;
70249;PMS5003;57644;48.416;-123.374;2022-07-15T14:00:04;4;4;
70249;PMS5003;57644;48.416;-123.374;2022-07-15T14:02:35;3;3;
70249;PMS5003;57644;48.416;-123.374;2022-07-15T14:05:05;5;5;
70249;PMS5003;57644;48.416;-123.374;2022-07-15T14:07:35;3;3;
70249;PMS5003;57644;48.416;-123.374;2022-07-15T14:10:05;4;4;
70249;PMS5003;57644;48.416;-123.374;2022-07-15T14:12:36;4;4;
70249;PMS5003;57644;48.416;-123.374;2022-07-15T14:15:06;3;3;
70249;PMS5003;57644;48.416;-123.374;2022-07-15T14:17:36;4;3;
70249;PMS5003;57644;48.416;-123.374;2022-07-15T14:20:07;7;6;
70249;PMS5003;57644;48.416;-123.374;2022-07-15T14:22:38;9;7;
70249;PMS5003;57644;48.416;-123.374;2022-07-15T14:25:08;4;4;
70249;PMS5003;57644;48.416;-123.374;2022-07-15T14:27:39;2;2;
70249;PMS5003;57644;48.416;-123.374;2022-07-15T14:30:08;4;4;
70249;PMS5003;57644;48.416;-123.374;2022-07-15T14:32:39;3;3;
70249;PMS5003;57644;48.416;-123.374;2022-07-15T14:35:09;3;3;
70249;PMS5003;57644;48.416;-123.374;2022-07-15T14:37:39;4;4;
70249;PMS5003;57644;48.416;-123.374;2022-07-15T14:40:10;5;5;
70249;PMS5003;57644;48.416;-123.374;2022-07-15T14:42:40;4;3;
70249;PMS5003;57644;48.416;-123.374;2022-07-15T14:45:10;3;3;
70249;PMS5003;57644;48.416;-123.374;2022-07-15T14:47:41;4;3;
70249;PMS5003;57644;48.416;-123.374;2022-07-15T14:50:11;3;3;
70249;PMS5003;57644;48.416;-123.374;2022-07-15T14:52:42;2;2;
70249;PMS5003;57644;48.416;-123.374;2022-07-15T14:55:12;3;3;
70249;PMS5003;57644;48.416;-123.374;2022-07-15T14:57:42;4;4;
70249;PMS5003;57644;48.416;-123.374;2022-07-15T15:00:13;2;2;
70249;PMS5003;57644;48.416;-123.374;2022-07-15T15:02:43;3;2;
70249;PMS5003;57644;48.416;-123.374;2022-07-15T15:05:14;2;2;
70249;PMS5003;57644;48.416;-123.374;2022-07-15T15:07:47;4;3;
70249;PMS5003;57644;48.416;-123.374;2022-07-15T15:10:16;3;2;
70249;PMS5003;57644;48.416;-123.374;2022-07-15T15:12:45;2;2;
70249;PMS5003;57644;48.416;-123.374;2022-07-15T15:15:15;3;3;
70249;PMS5003;57644;48.416;-123.374;2022-07-15T15:17:46;4;4;
70249;PMS5003;57644;48.416;-123.374;2022-07-15T15:20:16;4;3;
70249;PMS5003;57644;48.416;-123.374;2022-07-15T15:22:47;4;3;
70249;PMS5003;57644;48.416;-123.374;2022-07-15T15:25:18;4;2;
70249;PMS5003;57644;48.416;-123.374;2022-07-15T15:27:47;3;2;
70249;PMS5003;57644;48.416;-123.374;2022-07-15T15:30:18;3;3;
70249;PMS5003;57644;48.416;-123.374;2022-07-15T15:32:48;3;3;
70249;PMS5003;57644;48.416;-123.374;2022-07-15T15:35:18;1;1;
70249;PMS5003;57644;48.416;-123.374;2022-07-15T15:37:49;3;2;
70249;PMS5003;57644;48.416;-123.374;2022-07-15T15:40:19;4;4;
70249;PMS5003;57644;48.416;-123.374;2022-07-15T15:42:50;3;3;
70249;PMS5003;57644;48.416;-123.374;2022-07-15T15:45:20;2;2;
70249;PMS5003;57644;48.416;-123.374;2022-07-15T15:47:50;3;3;
70249;PMS5003;57644;48.416;-123.374;2022-07-15T15:50:21;3;2;
70249;PMS5003;57644;48.416;-123.374;2022-07-15T15:52:51;3;3;
70249;PMS5003;57644;48.416;-123.374;2022-07-15T15:55:22;3;3;
70249;PMS5003;57644;48.416;-123.374;2022-07-15T15:57:52;2;2;
70249;PMS5003;57644;48.416;-123.374;2022-07-15T16:00:22;4;3;
70249;PMS5003;57644;48.416;-123.374;2022-07-15T16:02:53;4;4;
70249;PMS5003;57644;48.416;-123.374;2022-07-15T16:05:23;2;2;
70249;PMS5003;57644;48.416;-123.374;2022-07-15T16:07:53;3;2;
70249;PMS5003;57644;48.416;-123.374;2022-07-15T16:10:23;1;1;
70249;PMS5003;57644;48.416;-123.374;2022-07-15T16:12:59;2;2;
70249;PMS5003;57644;48.416;-123.374;2022-07-15T16:15:23;2;2;
70249;PMS5003;57644;48.416;-123.374;2022-07-15T16:17:54;2;1;
70249;PMS5003;57644;48.416;-123.374;2022-07-15T16:20:25;1;1;
70249;PMS5003;57644;48.416;-123.374;2022-07-15T16:22:54;2;2;
70249;PMS5003;57644;48.416;-123.374;2022-07-15T16:25:26;0;0;
70249;PMS5003;57644;48.416;-123.374;2022-07-15T16:27:55;1;1;
70249;PMS5003;57644;48.416;-123.374;2022-07-15T16:30:28;0;0;
70249;PMS5003;57644;48.416;-123.374;2022-07-15T16:32:56;1;1;
70249;PMS5003;57644;48.416;-123.374;2022-07-15T16:35:27;1;1;
70249;PMS5003;57644;48.416;-123.374;2022-07-15T16:37:56;1;1;
70249;PMS5003;57644;48.416;-123.374;2022-07-15T16:40:27;1;1;
70249;PMS5003;57644;48.416;-123.374;2022-07-15T16:42:57;1;1;
70249;PMS5003;57644;48.416;-123.374;2022-07-15T16:45:27;1;1;
70249;PMS5003;57644;48.416;-123.374;2022-07-15T16:47:56;2;2;
70249;PMS5003;57644;48.416;-123.374;2022-07-15T16:50:26;0;0;
70249;PMS5003;57644;48.416;-123.374;2022-07-15T16:52:57;2;2;
70249;PMS5003;57644;48.416;-123.374;2022-07-15T16:55:27;3;3;
70249;PMS5003;57644;48.416;-123.374;2022-07-15T16:57:57;1;1;
70249;PMS5003;57644;48.416;-123.374;2022-07-15T17:00:27;3;3;
70249;PMS5003;57644;48.416;-123.374;2022-07-15T17:02:58;1;1;
70249;PMS5003;57644;48.416;-123.374;2022-07-15T17:05:27;4;4;
70249;PMS5003;57644;48.416;-123.374;2022-07-15T17:07:57;4;4;